Time;durP1;ratioP1;P1;durP2;ratioP2;P2;SDS_P1;SDS_P2;PMS_P1;PMS_P2;Temp;Humidity;BMP_temperature;BMP_pressure;BME280_temperature;BME280_humidity;BME280_pressure;Samples;Min_cycle;Max_cycle;Signal;HPM_P1;HPM_P2
2022/04/11 00:00:54;;;;;;;19.93;10.50;;;;;;;2.11;67.63;98958.21;2241899;79;20895;-83
2022/04/11 00:03:54;;;;;;;22.20;12.97;;;;;;;1.92;67.87;98960.33;2241365;79;20951;-83
2022/04/11 00:06:55;;;;;;;23.97;12.87;;;;;;;1.84;68.29;98961.66;2240593;79;21327;-84
2022/04/11 00:09:55;;;;;;;18.80;12.20;;;;;;;1.79;68.75;98956.69;2241263;79;20920;-84
2022/04/11 00:12:55;;;;;;;23.03;12.00;;;;;;;1.72;69.22;98959.34;2241568;79;20980;-83
2022/04/11 00:15:56;;;;;;;23.50;13.20;;;;;;;1.65;69.07;98963.71;2241727;79;21280;-83
2022/04/11 00:18:56;;;;;;;20.67;12.53;;;;;;;1.59;69.61;98962.13;2241873;79;20931;-82
2022/04/11 00:21:59;;;;;;;21.33;12.50;;;;;;;1.57;69.51;98967.60;2241998;79;21017;-83
2022/04/11 00:24:59;;;;;;;21.27;12.13;;;;;;;1.56;69.86;98973.56;2241831;79;20895;-84
2022/04/11 00:28:00;;;;;;;22.63;12.80;;;;;;;1.59;69.76;98974.99;2241760;79;20888;-83
2022/04/11 00:31:00;;;;;;;19.40;11.10;;;;;;;1.55;70.84;98982.97;2242028;79;20924;-85
2022/04/11 00:34:00;;;;;;;24.70;12.60;;;;;;;1.58;70.80;98977.09;2241817;79;21304;-84
2022/04/11 00:37:01;;;;;;;31.53;14.73;;;;;;;1.59;71.01;98989.14;2241851;79;20951;-84
2022/04/11 00:40:01;;;;;;;30.43;14.30;;;;;;;1.59;71.58;98991.72;2241633;79;20932;-86
2022/04/11 00:43:02;;;;;;;26.00;14.40;;;;;;;1.58;71.67;98992.12;2249853;78;20935;-83
2022/04/11 00:46:02;;;;;;;24.33;13.10;;;;;;;1.56;71.29;98996.31;2255394;79;20915;-82
2022/04/11 00:49:02;;;;;;;38.57;15.43;;;;;;;1.53;71.36;98997.84;2255317;79;20927;-83
2022/04/11 00:52:03;;;;;;;33.30;16.70;;;;;;;1.50;71.44;98998.58;2255833;79;20915;-84
2022/04/11 00:55:03;;;;;;;28.17;14.47;;;;;;;1.49;71.51;99006.22;2255980;79;20912;-85
2022/04/11 00:58:04;;;;;;;25.80;15.00;;;;;;;1.48;71.87;99004.45;2255712;79;20952;-84
2022/04/11 01:01:04;;;;;;;23.67;12.93;;;;;;;1.48;72.04;99010.89;2256233;79;20856;-83
2022/04/11 01:04:04;;;;;;;21.33;12.17;;;;;;;1.46;73.14;99009.92;2255527;79;20928;-84
2022/04/11 01:07:05;;;;;;;27.30;14.67;;;;;;;1.47;72.90;99010.41;2255172;79;20936;-83
2022/04/11 01:10:06;;;;;;;23.43;14.30;;;;;;;1.47;72.95;99007.84;2255794;79;20887;-83
2022/04/11 01:13:06;;;;;;;28.60;16.17;;;;;;;1.50;72.98;99014.42;2255554;79;20880;-83
2022/04/11 01:16:06;;;;;;;22.37;14.80;;;;;;;3.53;96.47;99007.12;2255187;79;20907;-84
2022/04/11 01:19:07;;;;;;;24.40;13.63;;;;;;;8.20;91.89;98992.90;2255441;79;20864;-84
2022/04/11 01:22:10;;;;;;;20.40;12.13;;;;;;;11.38;75.16;98978.55;2255431;79;21254;-84
2022/04/11 01:25:10;;;;;;;24.20;12.30;;;;;;;13.37;65.67;98979.15;2255494;79;20900;-84
2022/04/11 01:28:11;;;;;;;17.33;11.50;;;;;;;12.13;52.00;98987.56;2255537;79;21307;-84
2022/04/11 01:31:11;;;;;;;16.90;10.17;;;;;;;9.38;52.31;98996.76;2255046;79;20925;-81
2022/04/11 01:34:11;;;;;;;18.30;11.63;;;;;;;7.41;54.38;99003.86;2255191;79;20874;-81
2022/04/11 01:37:12;;;;;;;20.17;11.20;;;;;;;6.06;56.65;99014.52;2255167;79;21139;-82
2022/04/11 01:40:12;;;;;;;21.53;11.43;;;;;;;5.15;58.73;99013.04;2255078;79;20918;-85
2022/04/11 01:43:13;;;;;;;16.90;11.67;;;;;;;4.37;61.32;99016.19;2255277;78;21275;-82
2022/04/11 01:46:13;;;;;;;20.43;13.10;;;;;;;3.69;64.30;99022.02;2255238;79;20883;-83
2022/04/11 01:49:13;;;;;;;21.73;11.17;;;;;;;3.24;64.59;99021.33;2255184;79;21066;-83
2022/04/11 01:52:14;;;;;;;22.70;12.77;;;;;;;2.95;66.38;99017.06;2255260;79;20887;-84
2022/04/11 01:55:14;;;;;;;25.57;13.33;;;;;;;3.94;83.46;99015.27;2255230;79;20903;-83
2022/04/11 01:58:15;;;;;;;25.40;11.53;;;;;;;8.63;77.78;99001.70;2255322;79;20863;-84
2022/04/11 02:01:15;;;;;;;20.27;10.70;;;;;;;11.90;67.24;98998.27;2255279;79;21303;-80
2022/04/11 02:04:16;;;;;;;21.63;11.97;;;;;;;13.78;58.88;98997.59;2255395;79;20883;-85
2022/04/11 02:07:16;;;;;;;23.83;11.70;;;;;;;15.15;51.71;98997.50;2255122;79;21326;-83
2022/04/11 02:10:16;;;;;;;19.23;11.30;;;;;;;15.96;49.02;99001.05;2255283;79;20922;-83
2022/04/11 02:13:17;;;;;;;21.80;11.47;;;;;;;16.08;45.26;99005.35;2255523;79;20875;-81
2022/04/11 02:16:17;;;;;;;22.60;12.50;;;;;;;13.59;43.90;99015.48;2255223;79;20912;-80
2022/04/11 02:19:17;;;;;;;23.27;11.63;;;;;;;11.34;46.16;99019.45;2255195;79;20891;-82
2022/04/11 02:22:18;;;;;;;18.83;11.73;;;;;;;10.25;48.42;99025.72;2254865;79;20930;-81
2022/04/11 02:25:18;;;;;;;19.80;10.83;;;;;;;9.62;50.91;99026.34;2254931;79;20899;-83
2022/04/11 02:28:19;;;;;;;19.00;11.40;;;;;;;9.14;52.23;99027.11;2255436;79;20905;-81
2022/04/11 02:31:22;;;;;;;21.77;10.33;;;;;;;8.91;53.07;99031.84;2255244;79;20927;-83
2022/04/11 02:34:25;;;;;;;18.33;10.60;;;;;;;8.79;53.91;99034.18;2255527;79;20987;-80
2022/04/11 02:37:23;;;;;;;15.57;10.07;;;;;;;8.59;54.10;99037.61;2255006;79;20950;-82
2022/04/11 02:40:23;;;;;;;14.23;9.33;;;;;;;8.44;55.01;99036.84;2254939;79;21307;-84
2022/04/11 02:43:24;;;;;;;21.40;10.57;;;;;;;8.35;55.36;99038.34;2251789;79;20935;-79
2022/04/11 02:46:24;;;;;;;15.00;9.87;;;;;;;8.25;56.07;99045.02;2248871;79;20880;-82
2022/04/11 02:49:24;;;;;;;15.40;9.43;;;;;;;8.15;57.17;99045.63;2247881;79;21547;-83
2022/04/11 02:52:25;;;;;;;17.60;9.33;;;;;;;8.08;57.20;99047.63;2247555;79;20975;-83
2022/04/11 02:55:25;;;;;;;18.03;9.73;;;;;;;7.95;57.73;99038.22;2247766;79;20907;-83
2022/04/11 02:58:26;;;;;;;20.47;10.07;;;;;;;7.71;58.35;99040.58;2247789;79;20852;-83
2022/04/11 03:01:26;;;;;;;22.53;9.97;;;;;;;7.74;58.50;99045.85;2247837;79;20928;-81
2022/04/11 03:04:26;;;;;;;13.70;9.07;;;;;;;7.83;58.19;99044.83;2248401;79;21263;-82
2022/04/11 03:07:30;;;;;;;11.90;8.50;;;;;;;7.68;57.45;99044.85;2248408;79;20944;-83
2022/04/11 03:10:27;;;;;;;15.63;8.87;;;;;;;7.56;58.82;99047.13;2248627;79;20984;-84
2022/04/11 03:13:28;;;;;;;21.90;10.27;;;;;;;7.79;58.72;99042.95;2248360;79;21279;-84
2022/04/11 03:16:28;;;;;;;19.47;9.43;;;;;;;7.94;63.13;99049.45;2248836;79;20934;-83
2022/04/11 03:19:28;;;;;;;16.07;9.83;;;;;;;10.96;64.02;99035.94;2248716;79;20875;-84
2022/04/11 03:22:29;;;;;;;14.33;10.00;;;;;;;12.61;51.09;99033.31;2248369;79;20892;-83
2022/04/11 03:25:29;;;;;;;17.00;10.97;;;;;;;9.93;49.43;99041.67;2248462;79;20892;-84
2022/04/11 03:28:30;;;;;;;20.70;12.33;;;;;;;7.96;51.76;99052.98;2248131;79;20948;-84
2022/04/11 03:31:33;;;;;;;20.37;12.97;;;;;;;6.56;54.69;99059.33;2248199;79;21296;-82
2022/04/11 03:34:33;;;;;;;18.50;12.50;;;;;;;5.61;57.08;99052.69;2247945;79;20954;-83
2022/04/11 03:37:36;;;;;;;21.80;13.77;;;;;;;4.88;58.49;99056.89;2248294;79;20958;-81
2022/04/11 03:40:37;;;;;;;19.07;12.63;;;;;;;4.33;60.95;99064.66;2248111;79;20919;-80
2022/04/11 03:43:37;;;;;;;20.33;12.17;;;;;;;3.87;62.43;99068.78;2251058;78;20923;-81
2022/04/11 03:46:37;;;;;;;18.20;12.40;;;;;;;3.58;64.07;99077.47;2253782;79;20900;-80
2022/04/11 03:49:37;;;;;;;19.57;13.33;;;;;;;3.35;65.56;99077.73;2254513;79;20891;-81
2022/04/11 03:52:38;;;;;;;21.03;12.40;;;;;;;3.19;65.58;99080.45;2254770;79;20978;-81
2022/04/11 03:55:38;;;;;;;16.50;11.43;;;;;;;3.05;66.42;99082.83;2254746;79;20915;-82
2022/04/11 03:58:39;;;;;;;14.40;11.30;;;;;;;2.94;67.33;99080.17;2254437;79;20860;-83
2022/04/11 04:01:39;;;;;;;18.57;11.77;;;;;;;2.86;67.88;99082.40;2254461;79;21239;-83
2022/04/11 04:04:39;;;;;;;15.70;10.57;;;;;;;2.85;68.63;99089.66;2254990;79;20891;-82
2022/04/11 04:07:40;;;;;;;17.57;10.23;;;;;;;2.76;68.87;99090.52;2254768;79;21001;-83
2022/04/11 04:10:44;;;;;;;21.33;10.83;;;;;;;2.69;69.68;99091.05;2254430;79;20890;-83
2022/04/11 04:13:44;;;;;;;17.40;10.60;;;;;;;2.60;71.61;99102.19;2254049;79;20894;-81
2022/04/11 04:16:44;;;;;;;23.67;11.67;;;;;;;2.55;70.31;99102.86;2253905;79;20934;-82
2022/04/11 04:19:44;;;;;;;21.33;11.50;;;;;;;4.30;80.20;99098.55;2253652;79;21646;-82
2022/04/11 04:22:45;;;;;;;19.50;11.50;;;;;;;7.52;63.81;99086.84;2253867;79;20931;-82
2022/04/11 04:25:45;;;;;;;16.23;10.07;;;;;;;6.04;61.71;99095.22;2254115;79;20899;-82
2022/04/11 04:28:46;;;;;;;20.37;10.63;;;;;;;4.81;63.87;99104.92;2254016;79;20906;-81
2022/04/11 04:31:47;;;;;;;16.20;10.53;;;;;;;4.10;65.43;99106.77;2253886;79;20927;-84
2022/04/11 04:34:47;;;;;;;17.60;10.47;;;;;;;3.65;67.46;99116.05;2253928;79;20950;-82
2022/04/11 04:37:47;;;;;;;14.77;11.10;;;;;;;3.30;68.03;99114.06;2253993;79;20954;-80
2022/04/11 04:40:47;;;;;;;16.67;11.87;;;;;;;3.12;68.62;99115.81;2254462;79;21299;-81
2022/04/11 04:43:48;;;;;;;17.60;11.27;;;;;;;3.02;69.51;99117.50;2253349;77;20927;-82
2022/04/11 04:46:48;;;;;;;17.70;12.13;;;;;;;2.94;70.38;99117.16;2253674;79;20895;-82
2022/04/11 04:49:49;;;;;;;15.13;10.17;;;;;;;2.85;71.30;99122.77;2254114;79;21255;-84
2022/04/11 04:52:49;;;;;;;14.77;10.50;;;;;;;2.79;71.46;99127.64;2254881;79;20935;-81
2022/04/11 04:55:49;;;;;;;19.00;11.43;;;;;;;2.74;71.75;99129.52;2255197;78;21094;-81
2022/04/11 04:58:51;;;;;;;21.37;11.27;;;;;;;2.65;73.89;99139.41;2254924;79;20919;-83
2022/04/11 05:01:56;;;;;;;16.67;10.23;;;;;;;2.54;73.37;99142.72;2254252;79;20975;-83
2022/04/11 05:04:57;;;;;;;14.10;10.13;;;;;;;2.53;73.13;99146.99;2253885;79;21289;-80
2022/04/11 05:07:57;;;;;;;13.27;10.27;;;;;;;2.54;73.66;99147.47;2253942;79;20939;-83
2022/04/11 05:10:57;;;;;;;22.20;10.37;;;;;;;2.56;74.44;99149.72;2254348;78;20923;-84
2022/04/11 05:13:58;;;;;;;17.07;12.93;;;;;;;2.61;74.45;99155.13;2254273;78;21377;-83
2022/04/11 05:16:58;;;;;;;19.13;11.00;;;;;;;2.66;73.90;99160.50;2254276;79;20944;-83
2022/04/11 05:19:59;;;;;;;16.97;11.43;;;;;;;2.69;74.46;99164.11;2254611;78;20939;-83
2022/04/11 05:22:59;;;;;;;18.67;11.67;;;;;;;2.73;73.90;99163.84;2254256;79;21284;-84
2022/04/11 05:26:00;;;;;;;20.70;11.70;;;;;;;2.71;73.93;99163.78;2255349;79;20988;-84
2022/04/11 05:29:00;;;;;;;15.07;10.13;;;;;;;2.75;74.32;99169.96;2253894;79;21267;-84
2022/04/11 05:32:00;;;;;;;17.97;10.40;;;;;;;2.82;73.47;99161.70;2254022;78;20948;-82
2022/04/11 05:35:01;;;;;;;12.97;9.43;;;;;;;2.92;73.57;99166.48;2254185;79;20931;-85
2022/04/11 05:38:01;;;;;;;16.83;10.40;;;;;;;2.96;73.70;99176.53;2254858;79;20923;-81
2022/04/11 05:41:03;;;;;;;15.40;8.53;;;;;;;2.98;73.29;99165.48;2255116;79;20938;-84
2022/04/11 05:44:03;;;;;;;15.40;10.00;;;;;;;3.01;74.00;99170.78;2247165;79;21614;-84
2022/04/11 05:47:03;;;;;;;19.03;11.17;;;;;;;2.93;73.56;99174.69;2240841;79;20915;-82
2022/04/11 05:50:04;;;;;;;15.20;10.47;;;;;;;2.96;73.78;99176.53;2241310;79;20892;-83
2022/04/11 05:53:04;;;;;;;19.33;11.00;;;;;;;3.06;73.35;99185.17;2240828;79;21367;-82
2022/04/11 05:56:05;;;;;;;14.67;9.97;;;;;;;3.13;73.51;99189.81;2241237;79;20951;-84
2022/04/11 05:59:05;;;;;;;491.90;31.10;;;;;;;3.26;72.87;99191.25;2240542;79;20903;-83
2022/04/11 06:02:06;;;;;;;16.70;9.07;;;;;;;3.56;72.67;99177.59;2239720;79;21350;-83
2022/04/11 06:05:06;;;;;;;15.40;9.10;;;;;;;3.83;71.90;99170.66;2240470;79;20923;-84
2022/04/11 06:08:06;;;;;;;14.40;9.37;;;;;;;3.98;71.62;99167.84;2241080;79;21035;-84
2022/04/11 06:11:07;;;;;;;12.00;8.00;;;;;;;4.19;71.23;99167.88;2240933;79;20908;-84
2022/04/11 06:14:07;;;;;;;16.53;8.03;;;;;;;4.26;70.55;99169.01;2240471;79;20935;-83
2022/04/11 06:17:07;;;;;;;23.30;7.83;;;;;;;4.34;70.44;99162.08;2241159;79;20952;-82
2022/04/11 06:20:08;;;;;;;12.40;7.63;;;;;;;5.88;80.62;99160.27;2241103;79;21396;-81
2022/04/11 06:23:08;;;;;;;13.87;7.57;;;;;;;8.70;76.19;99158.90;2241293;79;20912;-82
2022/04/11 06:26:09;;;;;;;13.23;6.90;;;;;;;11.77;72.38;99151.59;2240677;79;20896;-82
2022/04/11 06:29:09;;;;;;;14.60;6.03;;;;;;;14.27;59.85;99147.31;2240047;79;20976;-82
2022/04/11 06:32:10;;;;;;;10.57;5.90;;;;;;;15.69;57.36;99153.88;2240784;79;20904;-84
2022/04/11 06:35:10;;;;;;;9.87;5.73;;;;;;;13.58;44.89;99154.05;2240148;79;20960;-83
2022/04/11 06:38:10;;;;;;;8.57;5.20;;;;;;;10.56;49.27;99165.44;2239785;79;20931;-82
2022/04/11 06:41:11;;;;;;;8.83;5.97;;;;;;;8.72;52.85;99172.41;2239766;79;20908;-81
2022/04/11 06:44:11;;;;;;;9.33;6.07;;;;;;;8.07;54.96;99170.23;2247902;78;20927;-82
2022/04/11 06:47:12;;;;;;;11.30;5.23;;;;;;;7.85;56.39;99164.88;2254246;79;20899;-80
2022/04/11 06:50:12;;;;;;;9.43;5.50;;;;;;;7.86;56.42;99171.84;2254344;79;20892;-84
2022/04/11 06:53:12;;;;;;;10.10;6.00;;;;;;;7.71;56.92;99175.69;2254466;79;21307;-84
2022/04/11 06:56:13;;;;;;;7.90;5.43;;;;;;;7.46;57.39;99176.28;2254159;79;20954;-83
2022/04/11 06:59:15;;;;;;;9.70;5.83;;;;;;;7.17;57.73;99170.64;2254724;78;20956;-83
2022/04/11 07:02:13;;;;;;;9.47;5.30;;;;;;;7.12;58.41;99178.29;2254332;79;20895;-80
2022/04/11 07:05:14;;;;;;;12.13;6.50;;;;;;;6.95;58.74;99184.26;2254404;78;20926;-84
2022/04/11 07:08:14;;;;;;;9.27;5.93;;;;;;;6.80;59.38;99186.33;2254198;79;21435;-82
2022/04/11 07:11:15;;;;;;;13.40;5.93;;;;;;;6.73;59.76;99189.56;2254205;79;20931;-83
2022/04/11 07:14:15;;;;;;;8.53;5.20;;;;;;;6.58;59.78;99191.66;2254280;79;20923;-83
2022/04/11 07:17:16;;;;;;;7.30;4.90;;;;;;;6.65;60.06;99195.80;2254126;79;20907;-83
2022/04/11 07:20:16;;;;;;;14.07;5.53;;;;;;;6.88;59.48;99200.85;2254805;79;20872;-83
2022/04/11 07:23:16;;;;;;;11.87;5.70;;;;;;;6.99;59.08;99199.09;2254990;79;20934;-83
2022/04/11 07:26:17;;;;;;;11.57;5.47;;;;;;;7.16;59.10;99199.62;2254798;79;20876;-84
2022/04/11 07:29:17;;;;;;;11.77;5.20;;;;;;;7.27;59.08;99205.14;2254754;79;20892;-84
2022/04/11 07:32:18;;;;;;;11.50;5.80;;;;;;;7.23;58.51;99211.08;2254684;78;21288;-84
2022/04/11 07:35:18;;;;;;;10.20;5.00;;;;;;;7.13;58.62;99209.03;2255015;79;20982;-86
2022/04/11 07:38:19;;;;;;;12.53;5.47;;;;;;;6.93;59.37;99211.84;2254587;78;20967;-84
2022/04/11 07:41:19;;;;;;;13.20;5.63;;;;;;;6.77;60.08;99218.67;2254511;79;20888;-83
2022/04/11 07:44:19;;;;;;;10.10;5.40;;;;;;;6.67;60.53;99225.68;2254566;78;20966;-84
2022/04/11 07:47:20;;;;;;;8.97;5.30;;;;;;;6.24;61.64;99221.63;2254296;79;20903;-85
2022/04/11 07:50:20;;;;;;;9.70;5.20;;;;;;;6.24;61.64;99221.63;2254122;79;20965;-85
2022/04/11 07:53:21;;;;;;;8.67;5.10;;;;;;;6.02;62.40;99228.16;2254048;79;20856;-83
2022/04/11 07:56:21;;;;;;;10.17;4.97;;;;;;;5.93;62.94;99226.11;2253331;79;20888;-82
2022/04/11 07:59:21;;;;;;;7.93;4.87;;;;;;;5.97;64.00;99233.17;2253433;79;20938;-83
2022/04/11 08:02:22;;;;;;;9.13;4.97;;;;;;;6.18;64.23;99227.90;2253563;79;20899;-84
2022/04/11 08:05:22;;;;;;;6.73;4.10;;;;;;;6.58;64.28;99233.16;2253860;79;20970;-82
2022/04/11 08:08:23;;;;;;;6.60;4.23;;;;;;;7.29;63.37;99234.21;2253021;79;20954;-83
2022/04/11 08:11:25;;;;;;;6.83;3.23;;;;;;;7.37;61.35;99233.56;2253574;79;21236;-83
2022/04/11 08:14:23;;;;;;;7.23;4.43;;;;;;;7.26;61.53;99238.02;2254177;79;20919;-85
2022/04/11 08:17:26;;;;;;;10.80;5.23;;;;;;;7.55;61.59;99239.31;2232883;79;20895;-83
2022/04/11 08:20:26;;;;;;;7.40;4.83;;;;;;;7.85;60.28;99249.77;2254711;79;20932;-82
2022/04/11 08:23:27;;;;;;;5.40;3.53;;;;;;;7.78;59.38;99241.30;2254128;79;20922;-83
2022/04/11 08:26:27;;;;;;;4.23;2.40;;;;;;;7.67;59.09;99248.36;2254877;79;21434;-81
2022/04/11 08:29:27;;;;;;;3.70;2.63;;;;;;;7.47;58.56;99248.17;2254265;79;20884;-81
2022/04/11 08:32:28;;;;;;;5.43;3.50;;;;;;;7.68;59.82;99244.04;2254363;79;20908;-84
2022/04/11 08:35:28;;;;;;;7.77;4.37;;;;;;;7.81;59.08;99245.31;2254328;79;21251;-84
2022/04/11 08:38:29;;;;;;;12.67;7.83;;;;;;;7.90;58.82;99232.16;2254331;79;21290;-84
2022/04/11 08:41:29;;;;;;;9.47;6.50;;;;;;;8.02;59.03;99228.15;2254830;79;20852;-85
2022/04/11 08:44:30;;;;;;;9.93;5.33;;;;;;;8.06;59.16;99231.30;2254882;79;20935;-81
2022/04/11 08:47:30;;;;;;;6.63;3.80;;;;;;;8.00;59.26;99233.30;2254400;79;20943;-82
2022/04/11 08:50:30;;;;;;;6.07;3.90;;;;;;;8.03;58.97;99234.69;2254168;79;20899;-83
2022/04/11 08:53:31;;;;;;;5.87;3.23;;;;;;;8.23;58.65;99230.04;2253633;79;20891;-83
2022/04/11 08:56:31;;;;;;;5.70;3.37;;;;;;;8.63;57.83;99232.00;2254302;79;20880;-83
2022/04/11 08:59:32;;;;;;;5.37;3.50;;;;;;;8.65;57.66;99233.34;2254037;79;20947;-81
2022/04/11 09:02:32;;;;;;;6.20;4.30;;;;;;;8.40;57.66;99247.43;2254798;79;20899;-84
2022/04/11 09:05:32;;;;;;;5.20;2.97;;;;;;;8.25;58.03;99244.84;2254339;79;20888;-84
2022/04/11 09:08:33;;;;;;;8.73;3.13;;;;;;;8.06;57.31;99247.77;2255096;79;20943;-82
2022/04/11 09:11:34;;;;;;;3.23;2.43;;;;;;;8.12;57.72;99242.75;2254880;79;21291;-84
2022/04/11 09:14:35;;;;;;;4.43;3.00;;;;;;;8.69;57.32;99240.00;2254642;79;20922;-83
2022/04/11 09:17:34;;;;;;;9.50;5.30;;;;;;;8.85;56.94;99239.96;2254642;79;21278;-84
2022/04/11 09:20:34;;;;;;;4.53;3.10;;;;;;;8.75;57.25;99233.64;2254602;79;20863;-84
2022/04/11 09:23:35;;;;;;;6.57;3.50;;;;;;;8.71;56.33;99239.61;2254964;79;20907;-83
2022/04/11 09:26:35;;;;;;;5.00;3.03;;;;;;;8.88;56.69;99233.11;2254567;79;21295;-84
2022/04/11 09:29:36;;;;;;;6.00;3.00;;;;;;;9.07;56.12;99230.53;2254982;79;20879;-84
2022/04/11 09:32:36;;;;;;;4.87;3.37;;;;;;;9.05;54.19;99235.23;2254905;79;20888;-82
2022/04/11 09:35:36;;;;;;;7.17;3.47;;;;;;;9.37;54.47;99229.05;2254219;79;21354;-85
2022/04/11 09:38:40;;;;;;;6.07;3.60;;;;;;;9.83;52.65;99219.66;2253844;79;20955;-85
2022/04/11 09:41:40;;;;;;;8.07;3.77;;;;;;;9.77;52.95;99222.13;2254303;79;20934;-83
2022/04/11 09:44:41;;;;;;;6.60;3.33;;;;;;;9.99;53.60;99220.42;2254246;79;20918;-85
2022/04/11 09:47:41;;;;;;;6.53;3.20;;;;;;;10.32;51.69;99216.73;2254507;79;21251;-85
2022/04/11 09:50:42;;;;;;;6.27;3.10;;;;;;;9.88;51.80;99218.02;2254381;79;20899;-87
2022/04/11 09:53:43;;;;;;;8.83;4.30;;;;;;;9.56;52.61;99219.53;2254040;79;20896;-84
2022/04/11 10:00:14;;;;;;;6.83;4.27;;;;;;;9.51;55.97;99228.94;2260169;79;22364;-84
2022/04/11 10:03:15;;;;;;;4.03;3.60;;;;;;;9.93;55.68;99228.55;2227427;80;20968;-85
2022/04/11 10:06:15;;;;;;;4.12;3.62;;;;;;;10.33;54.46;99230.23;2226998;80;21347;-83
2022/04/11 10:09:16;;;;;;;7.28;2.90;;;;;;;10.63;54.55;99221.69;2226989;80;20979;-82
2022/04/11 10:12:16;;;;;;;4.55;3.40;;;;;;;10.89;52.54;99216.91;2227802;80;20972;-83
2022/04/11 10:15:16;;;;;;;3.58;2.80;;;;;;;11.11;52.29;99221.63;2227751;80;21097;-84
2022/04/11 10:18:17;;;;;;;5.45;3.45;;;;;;;10.52;53.44;99220.62;2227794;80;21014;-84
2022/04/11 10:21:17;;;;;;;5.53;3.77;;;;;;;9.83;54.44;99220.53;2227613;80;21649;-78
2022/04/11 10:24:18;;;;;;;5.27;4.33;;;;;;;9.35;56.01;99217.72;2226856;80;21048;-78
2022/04/11 10:27:20;;;;;;;5.77;3.97;;;;;;;9.42;58.55;99212.22;2226994;80;20975;-85
2022/04/11 10:30:20;;;;;;;7.57;3.50;;;;;;;9.79;57.62;99212.19;2226656;80;20978;-84
2022/04/11 10:33:20;;;;;;;4.85;3.98;;;;;;;9.61;56.32;99213.53;2226724;80;21042;-83
2022/04/11 10:36:20;;;;;;;10.10;3.50;;;;;;;9.55;56.13;99222.10;2227226;80;20935;-80
2022/04/11 10:39:22;;;;;;;6.78;2.77;;;;;;;10.18;55.64;99217.75;2226997;80;21371;-81
2022/04/11 10:42:22;;;;;;;4.35;2.65;;;;;;;10.69;52.48;99211.78;2226462;80;20952;-84
2022/04/11 10:45:22;;;;;;;7.17;3.50;;;;;;;10.87;50.63;99207.30;2227398;80;20940;-82
2022/04/11 10:48:24;;;;;;;4.37;2.35;;;;;;;11.21;51.09;99207.39;2227231;80;21008;-80
2022/04/11 10:51:23;;;;;;;6.47;3.62;;;;;;;11.02;48.72;99199.27;2227145;80;21359;-81
2022/04/11 10:54:23;;;;;;;4.85;2.85;;;;;;;10.52;50.08;99208.45;2226188;80;20947;-82
2022/04/11 10:57:23;;;;;;;5.15;2.45;;;;;;;10.50;49.98;99208.84;2226732;80;21725;-81
2022/04/11 11:00:24;;;;;;;6.07;2.77;;;;;;;10.76;47.79;99198.86;2210423;81;20932;-83
2022/04/11 11:03:24;;;;;;;3.85;2.37;;;;;;;11.01;49.10;99194.02;2210573;81;20944;-82
2022/04/11 11:06:24;;;;;;;2.95;2.00;;;;;;;11.04;47.43;99189.73;2210765;81;20976;-81
2022/04/11 11:09:27;;;;;;;2.05;1.75;;;;;;;10.67;47.33;99198.70;2210847;81;20929;-83
2022/04/11 11:12:25;;;;;;;4.13;2.10;;;;;;;10.47;47.66;99186.61;2210917;81;20952;-82
2022/04/11 11:15:27;;;;;;;30.77;17.27;;;;;;;10.15;46.93;99191.60;2210790;81;21008;-82
2022/04/11 11:18:26;;;;;;;4.80;2.50;;;;;;;9.75;47.99;99187.33;2210065;81;21000;-82
2022/04/11 11:21:26;;;;;;;5.27;2.70;;;;;;;9.62;49.37;99189.23;2210277;81;20929;-81
2022/04/11 11:24:29;;;;;;;4.43;2.03;;;;;;;9.85;50.27;99185.36;2209082;81;20920;-79
2022/04/11 11:27:32;;;;;;;4.30;2.33;;;;;;;10.28;47.16;99180.58;2203215;81;20940;-81
2022/04/11 11:30:32;;;;;;;3.22;1.80;;;;;;;10.60;44.99;99191.62;2203569;81;21654;-83
2022/04/11 11:33:35;;;;;;;9.08;6.70;;;;;;;10.75;43.92;99180.13;2185923;81;20936;-81
2022/04/11 11:36:35;;;;;;;4.78;2.80;;;;;;;10.87;45.48;99176.83;2208855;81;20976;-83
2022/04/11 11:39:36;;;;;;;9.30;4.40;;;;;;;10.76;45.72;99170.13;2209433;81;21447;-82
2022/04/11 11:42:36;;;;;;;4.97;2.65;;;;;;;10.81;44.20;99172.39;2209784;81;20963;-82
2022/04/11 11:45:36;;;;;;;4.87;2.72;;;;;;;11.44;43.64;99163.77;2210179;81;20905;-83
2022/04/11 11:48:37;;;;;;;4.25;2.25;;;;;;;11.68;44.73;99164.95;2210059;81;21108;-82
2022/04/11 11:51:37;;;;;;;3.87;2.20;;;;;;;11.81;43.33;99168.19;2210485;81;20984;-86
2022/04/11 11:54:38;;;;;;;4.67;2.60;;;;;;;11.59;44.12;99156.98;2209137;81;20948;-82
2022/04/11 11:57:41;;;;;;;3.25;2.22;;;;;;;11.67;44.83;99159.27;2209498;81;21003;-83
2022/04/11 12:06:57;;;;;;;22.97;3.10;;;;;;;10.77;44.90;99157.53;2226927;80;20944;-84
2022/04/11 12:09:59;;;;;;;3.90;2.40;;;;;;;10.63;44.26;99156.85;2196799;80;20923;-79
2022/04/11 12:13:00;;;;;;;3.60;1.90;;;;;;;10.34;43.66;99170.67;2226550;80;20943;-82
2022/04/11 12:16:10;;;;;;;3.87;2.30;;;;;;;10.18;44.38;99148.19;2226467;80;21046;-83
2022/04/11 12:19:10;;;;;;;4.93;2.33;;;;;;;10.22;44.42;99149.16;2226467;80;21003;-83
2022/04/11 12:22:11;;;;;;;3.87;2.30;;;;;;;10.16;45.69;99152.92;2226469;80;21434;-83
2022/04/11 12:25:11;;;;;;;2.90;2.00;;;;;;;9.89;44.77;99146.77;2226841;80;21371;-85
2022/04/11 12:28:11;;;;;;;5.47;3.67;;;;;;;9.40;45.78;99153.56;2227049;80;21026;-84
2022/04/11 12:31:12;;;;;;;4.83;2.53;;;;;;;9.04;48.59;99169.69;2226364;80;21086;-82
2022/04/11 12:34:12;;;;;;;13.73;3.93;;;;;;;8.71;49.89;99165.44;2226182;80;20956;-83
2022/04/11 12:37:13;;;;;;;3.23;2.43;;;;;;;8.82;50.75;99163.97;2226462;80;20924;-86
2022/04/11 12:40:13;;;;;;;3.07;2.50;;;;;;;8.72;51.72;99159.81;2226790;80;20979;-82
2022/04/11 12:43:13;;;;;;;5.73;3.30;;;;;;;8.63;52.04;99156.53;2227506;80;21014;-84
2022/04/11 12:46:14;;;;;;;9.03;5.80;;;;;;;8.56;51.90;99167.63;2226954;80;20904;-84
2022/04/11 12:49:15;;;;;;;6.37;3.63;;;;;;;8.40;52.95;99175.89;2227598;80;20936;-82
2022/04/11 12:52:15;;;;;;;7.20;3.27;;;;;;;8.39;52.89;99171.11;2227622;80;20975;-84
2022/04/11 12:55:17;;;;;;;7.00;4.60;;;;;;;8.30;54.36;99183.84;2227071;80;21008;-83
2022/04/11 12:58:17;;;;;;;10.27;5.90;;;;;;;7.96;57.05;99180.77;2227520;80;20927;-82
2022/04/11 13:01:20;;;;;;;6.40;4.07;;;;;;;7.54;59.91;99199.89;2223811;80;21034;-83
2022/04/11 13:04:20;;;;;;;4.60;2.93;;;;;;;7.01;60.84;99204.33;2202652;81;21237;-82
2022/04/11 13:07:20;;;;;;;8.17;5.03;;;;;;;6.50;62.39;99190.11;2209445;81;20932;-80
2022/04/11 13:10:21;;;;;;;11.63;5.00;;;;;;;6.46;64.01;99196.44;2209332;80;20993;-79
2022/04/11 13:13:21;;;;;;;9.90;3.23;;;;;;;6.68;63.77;99186.82;2209665;81;20931;-83
2022/04/11 13:19:41;;;;;;;5.17;2.50;;;;;;;7.24;62.58;99181.27;2208848;80;20983;-80
2022/04/11 13:22:41;;;;;;;3.70;2.87;;;;;;;7.24;61.96;99176.48;2207811;80;21718;-83
2022/04/11 13:25:41;;;;;;;4.10;3.00;;;;;;;7.25;62.06;99172.64;2208832;81;20905;-84
2022/04/11 13:28:42;;;;;;;4.23;2.90;;;;;;;7.31;62.25;99173.23;2208785;81;21372;-81
2022/04/11 13:31:42;;;;;;;5.67;3.00;;;;;;;7.34;61.93;99166.84;2209706;81;21016;-84
2022/04/11 13:34:43;;;;;;;5.73;3.60;;;;;;;7.55;62.19;99168.76;2210735;81;20968;-84
2022/04/11 13:37:43;;;;;;;10.73;4.90;;;;;;;7.72;60.99;99168.36;2210239;81;21367;-84
2022/04/11 13:40:43;;;;;;;7.47;3.80;;;;;;;7.75;61.79;99166.73;2210422;81;20972;-83
2022/04/11 13:43:44;;;;;;;6.03;4.00;;;;;;;7.77;61.36;99163.75;2210378;81;20940;-84
2022/04/11 13:46:45;;;;;;;6.70;4.53;;;;;;;7.82;60.61;99158.72;2210637;81;21079;-84
2022/04/11 13:49:45;;;;;;;10.97;5.60;;;;;;;7.96;60.93;99166.47;2210770;81;20909;-80
2022/04/11 13:52:45;;;;;;;10.87;6.13;;;;;;;8.13;60.92;99157.41;2210234;81;20932;-82
2022/04/11 13:55:45;;;;;;;9.00;4.83;;;;;;;8.16;60.20;99159.20;2210661;81;20972;-83
2022/04/11 13:58:46;;;;;;;8.37;4.40;;;;;;;7.96;59.99;99159.97;2210687;81;20979;-83
2022/04/11 14:01:46;;;;;;;6.40;4.13;;;;;;;7.83;59.72;99170.45;2209536;80;21048;-83
2022/04/11 14:04:47;;;;;;;5.97;2.00;;;;;;;7.83;59.86;99182.15;2210585;81;21000;-82
2022/04/11 14:07:49;;;;;;;2.57;2.00;;;;;;;7.72;57.48;99190.45;2210701;81;21377;-83
2022/04/11 14:10:49;;;;;;;3.33;2.37;;;;;;;7.55;58.69;99186.95;2211112;81;21003;-82
2022/04/11 14:13:48;;;;;;;4.37;2.87;;;;;;;7.48;58.85;99195.39;2210833;81;21023;-83
2022/04/11 14:16:48;;;;;;;4.23;2.70;;;;;;;7.25;59.08;99201.20;2210641;81;21328;-81
2022/04/11 14:19:49;;;;;;;4.30;3.00;;;;;;;6.92;63.22;99210.08;2210923;81;21071;-81